NVR147 GCTS-ESSA
Flight info
| Callsign | NVR147 |
|---|---|
| Flight time | N/A |
| Altitude | 34000 |
| Route | KONBA UN866 OSDIV/N0476F360 UN866 BEXAL DCT GANSU DCT BALNO DCT LOTEE DCT AZFIC DCT ERIGA DCT GODIX DCT PODEM/N0477F380 UN873 BAZOS DCT BELDI DCT VEKIN DCT ADUTO/N0474F370 DCT VICOT DCT LARAS DCT SUSET DCT XEBOT DCT JUIST N873 HUNQI DCT ATTUS DCT NISEM DCT LAPMA DCT RISMA DCT DETSO N873 ARS T317 ELTOK |
| Aircraft | L101/H-SDFGHIRWXY/S |
Departure
| Time | N/A |
|---|---|
| Airport | Tenerife Sur Airport (GCTS) |
Arrival
| Time | 2026-05-05 15:10 |
|---|---|
| Airport | Stockholm-Arlanda Airport (ESSA) |
| Time | Latitude | Longitude | Altitude | Speed | Heading |
|---|---|---|---|---|---|
| 2026-05-05 13:45 | 52.28926 | 5.32864 | 35907 ft | 507 kts | 37° |
| 2026-05-05 13:45 | 52.31736 | 5.36353 | 35904 ft | 507 kts | 37° |
| 2026-05-05 13:46 | 52.37356 | 5.43340 | 35908 ft | 507 kts | 37° |
| 2026-05-05 13:46 | 52.42966 | 5.50369 | 35907 ft | 508 kts | 37° |
| 2026-05-05 13:47 | 52.48580 | 5.57418 | 36041 ft | 508 kts | 37° |
| 2026-05-05 13:47 | 52.54211 | 5.64473 | 36216 ft | 508 kts | 37° |
| 2026-05-05 13:48 | 52.56981 | 5.67962 | 36326 ft | 508 kts | 37° |
| 2026-05-05 13:48 | 52.59818 | 5.71545 | 36434 ft | 507 kts | 37° |
| 2026-05-05 13:48 | 52.62572 | 5.75040 | 36547 ft | 507 kts | 37° |
| 2026-05-05 13:48 | 52.65351 | 5.78591 | 36660 ft | 506 kts | 37° |
| 2026-05-05 13:49 | 52.68170 | 5.82187 | 36835 ft | 505 kts | 37° |
| 2026-05-05 13:49 | 52.70967 | 5.85690 | 36884 ft | 506 kts | 36° |
| 2026-05-05 13:49 | 52.76529 | 5.92652 | 36911 ft | 505 kts | 37° |
| 2026-05-05 13:50 | 52.82084 | 5.99756 | 36926 ft | 504 kts | 37° |
| 2026-05-05 13:50 | 52.87608 | 6.06922 | 36912 ft | 504 kts | 37° |
| 2026-05-05 13:51 | 52.93149 | 6.14062 | 36921 ft | 506 kts | 37° |
| 2026-05-05 13:51 | 52.98729 | 6.21206 | 36923 ft | 507 kts | 37° |
| 2026-05-05 13:52 | 53.04286 | 6.28429 | 36932 ft | 507 kts | 37° |
| 2026-05-05 13:52 | 53.09846 | 6.35634 | 36944 ft | 507 kts | 37° |
| 2026-05-05 13:53 | 53.15391 | 6.42876 | 36941 ft | 506 kts | 37° |
| 2026-05-05 13:53 | 53.20919 | 6.50150 | 36940 ft | 506 kts | 37° |
| 2026-05-05 13:54 | 53.26468 | 6.57387 | 36931 ft | 506 kts | 37° |
| 2026-05-05 13:54 | 53.32044 | 6.64542 | 36936 ft | 505 kts | 34° |
| 2026-05-05 13:55 | 53.37867 | 6.71140 | 36934 ft | 505 kts | 32° |
| 2026-05-05 13:55 | 53.43717 | 6.77720 | 36945 ft | 507 kts | 32° |
| 2026-05-05 13:56 | 53.49574 | 6.84344 | 36939 ft | 508 kts | 32° |
| 2026-05-05 13:56 | 53.55408 | 6.90896 | 36959 ft | 508 kts | 34° |
| 2026-05-05 13:57 | 53.60017 | 6.97135 | 36945 ft | 507 kts | 40° |
| 2026-05-05 13:57 | 53.65340 | 7.04914 | 36947 ft | 506 kts | 39° |
| 2026-05-05 13:58 | 53.71607 | 7.13726 | 36943 ft | 506 kts | 38° |
| 2026-05-05 13:58 | 53.76128 | 7.20149 | 36951 ft | 506 kts | 39° |
| 2026-05-05 13:59 | 53.85000 | 7.33036 | 36954 ft | 505 kts | 39° |
| 2026-05-05 14:00 | 53.92344 | 7.42992 | 36955 ft | 506 kts | 36° |
| 2026-05-05 14:00 | 53.97871 | 7.50376 | 36955 ft | 506 kts | 36° |
| 2026-05-05 14:01 | 54.03393 | 7.57806 | 36964 ft | 506 kts | 37° |
| 2026-05-05 14:01 | 54.08905 | 7.65218 | 36956 ft | 504 kts | 36° |
| 2026-05-05 14:02 | 54.14409 | 7.72652 | 36953 ft | 504 kts | 37° |
| 2026-05-05 14:02 | 54.19884 | 7.80147 | 36953 ft | 504 kts | 37° |
| 2026-05-05 14:03 | 54.25358 | 7.87631 | 36972 ft | 504 kts | 37° |
| 2026-05-05 14:03 | 54.30850 | 7.95060 | 36951 ft | 502 kts | 37° |
| 2026-05-05 14:04 | 54.36288 | 8.02537 | 36945 ft | 501 kts | 37° |
| 2026-05-05 14:04 | 54.41695 | 8.10107 | 36955 ft | 502 kts | 37° |
| 2026-05-05 14:05 | 54.47158 | 8.17602 | 36948 ft | 502 kts | 36° |
| 2026-05-05 14:05 | 54.52606 | 8.25095 | 36956 ft | 501 kts | 37° |
| 2026-05-05 14:06 | 54.58003 | 8.32671 | 36957 ft | 500 kts | 37° |
| 2026-05-05 14:06 | 54.63394 | 8.40285 | 36954 ft | 500 kts | 37° |
| 2026-05-05 14:07 | 54.68833 | 8.47834 | 36945 ft | 500 kts | 37° |
| 2026-05-05 14:07 | 54.74232 | 8.55399 | 36942 ft | 501 kts | 37° |
| 2026-05-05 14:08 | 54.79623 | 8.63051 | 36947 ft | 501 kts | 38° |
| 2026-05-05 14:08 | 54.85023 | 8.70680 | 36945 ft | 501 kts | 37° |
| 2026-05-05 14:09 | 54.90443 | 8.78307 | 36936 ft | 501 kts | 38° |
| 2026-05-05 14:09 | 54.95702 | 8.86157 | 36944 ft | 502 kts | 39° |
| 2026-05-05 14:10 | 55.00977 | 8.94162 | 36936 ft | 503 kts | 38° |
| 2026-05-05 14:10 | 55.06338 | 9.01982 | 36932 ft | 503 kts | 38° |
| 2026-05-05 14:11 | 55.11681 | 9.09883 | 36933 ft | 503 kts | 38° |
| 2026-05-05 14:11 | 55.17029 | 9.17761 | 36934 ft | 503 kts | 38° |
| 2026-05-05 14:12 | 55.22389 | 9.25655 | 36944 ft | 504 kts | 38° |
| 2026-05-05 14:12 | 55.27737 | 9.33609 | 36939 ft | 504 kts | 37° |
| 2026-05-05 14:13 | 55.33085 | 9.41606 | 36927 ft | 505 kts | 38° |
| 2026-05-05 14:13 | 55.38429 | 9.49621 | 36922 ft | 505 kts | 38° |
| 2026-05-05 14:14 | 55.43764 | 9.57647 | 36937 ft | 505 kts | 37° |
| 2026-05-05 14:14 | 55.49114 | 9.65710 | 36937 ft | 506 kts | 38° |
| 2026-05-05 14:15 | 55.54464 | 9.73818 | 36933 ft | 507 kts | 38° |
| 2026-05-05 14:15 | 55.59813 | 9.81930 | 36937 ft | 507 kts | 38° |
| 2026-05-05 14:16 | 55.65175 | 9.90017 | 36940 ft | 507 kts | 37° |
| 2026-05-05 14:16 | 55.70611 | 9.97962 | 36939 ft | 506 kts | 36° |
| 2026-05-05 14:17 | 55.76038 | 10.05925 | 36941 ft | 506 kts | 37° |
| 2026-05-05 14:17 | 55.81469 | 10.13895 | 36945 ft | 506 kts | 36° |
| 2026-05-05 14:18 | 55.86927 | 10.21829 | 36945 ft | 506 kts | 36° |
| 2026-05-05 14:18 | 55.92387 | 10.29753 | 36947 ft | 507 kts | 36° |
| 2026-05-05 14:19 | 55.97827 | 10.37636 | 36947 ft | 507 kts | 36° |
| 2026-05-05 14:19 | 56.03279 | 10.45631 | 36948 ft | 507 kts | 36° |
| 2026-05-05 14:20 | 56.08745 | 10.53630 | 36951 ft | 507 kts | 36° |
| 2026-05-05 14:20 | 56.14193 | 10.61676 | 36958 ft | 508 kts | 36° |
| 2026-05-05 14:21 | 56.19680 | 10.69813 | 36953 ft | 508 kts | 36° |
| 2026-05-05 14:21 | 56.25119 | 10.77810 | 36959 ft | 509 kts | 36° |
| 2026-05-05 14:22 | 56.30630 | 10.85929 | 36960 ft | 509 kts | 36° |
| 2026-05-05 14:22 | 56.36065 | 10.93969 | 36995 ft | 509 kts | 36° |
| 2026-05-05 14:23 | 56.41535 | 11.02260 | 36965 ft | 511 kts | 37° |
| 2026-05-05 14:23 | 56.46945 | 11.10469 | 36959 ft | 511 kts | 37° |
| 2026-05-05 14:24 | 56.52428 | 11.18653 | 36957 ft | 511 kts | 36° |
| 2026-05-05 14:24 | 56.57888 | 11.26931 | 36957 ft | 512 kts | 37° |
| 2026-05-05 14:25 | 56.63319 | 11.35287 | 36965 ft | 512 kts | 36° |
| 2026-05-05 14:25 | 56.68799 | 11.43605 | 36966 ft | 514 kts | 37° |
| 2026-05-05 14:26 | 56.74240 | 11.52030 | 36959 ft | 513 kts | 36° |
| 2026-05-05 14:26 | 56.79743 | 11.60311 | 36975 ft | 513 kts | 36° |
| 2026-05-05 14:27 | 56.85234 | 11.68655 | 36980 ft | 514 kts | 36° |
| 2026-05-05 14:27 | 56.90740 | 11.77021 | 36964 ft | 515 kts | 36° |
| 2026-05-05 14:28 | 56.96261 | 11.85390 | 36955 ft | 515 kts | 36° |
| 2026-05-05 14:28 | 57.01761 | 11.93829 | 36959 ft | 515 kts | 36° |
| 2026-05-05 14:29 | 57.07372 | 12.01938 | 36964 ft | 513 kts | 33° |
| 2026-05-05 14:29 | 57.13074 | 12.09890 | 36973 ft | 515 kts | 34° |
| 2026-05-05 14:30 | 57.18737 | 12.17986 | 36959 ft | 515 kts | 33° |
| 2026-05-05 14:30 | 57.24444 | 12.25986 | 36958 ft | 515 kts | 33° |
| 2026-05-05 14:31 | 57.30167 | 12.33940 | 36956 ft | 515 kts | 33° |
| 2026-05-05 14:31 | 57.35875 | 12.41973 | 36966 ft | 516 kts | 33° |
| 2026-05-05 14:32 | 57.41583 | 12.50067 | 36934 ft | 516 kts | 33° |
| 2026-05-05 14:32 | 57.47259 | 12.58081 | 36946 ft | 516 kts | 33° |
| 2026-05-05 14:33 | 57.52962 | 12.66226 | 36936 ft | 517 kts | 33° |
| 2026-05-05 14:33 | 57.58645 | 12.74449 | 36936 ft | 518 kts | 33° |
| 2026-05-05 14:34 | 57.64367 | 12.82625 | 36927 ft | 519 kts | 33° |
| 2026-05-05 14:34 | 57.70075 | 12.90900 | 36926 ft | 520 kts | 33° |
| 2026-05-05 14:35 | 57.75784 | 12.99171 | 36917 ft | 520 kts | 34° |
| 2026-05-05 14:35 | 57.81500 | 13.07515 | 36942 ft | 520 kts | 33° |
| 2026-05-05 14:36 | 57.87218 | 13.15827 | 36917 ft | 520 kts | 34° |
| 2026-05-05 14:36 | 57.91933 | 13.22896 | 36912 ft | 521 kts | 35° |
| 2026-05-05 14:37 | 57.98492 | 13.33002 | 36905 ft | 521 kts | 35° |
| 2026-05-05 14:37 | 58.04143 | 13.41571 | 36903 ft | 521 kts | 34° |
| 2026-05-05 14:38 | 58.09831 | 13.50044 | 36903 ft | 521 kts | 34° |
| 2026-05-05 14:38 | 58.15518 | 13.58494 | 36901 ft | 521 kts | 34° |
| 2026-05-05 14:39 | 58.21211 | 13.67019 | 36899 ft | 521 kts | 34° |
| 2026-05-05 14:39 | 58.26883 | 13.75588 | 36887 ft | 521 kts | 34° |
| 2026-05-05 14:40 | 58.32544 | 13.84192 | 36901 ft | 522 kts | 34° |
| 2026-05-05 14:40 | 58.38216 | 13.92843 | 36891 ft | 523 kts | 34° |
| 2026-05-05 14:41 | 58.43886 | 14.01520 | 36893 ft | 523 kts | 34° |
| 2026-05-05 14:41 | 58.49549 | 14.10222 | 36886 ft | 523 kts | 34° |
| 2026-05-05 14:42 | 58.54260 | 14.17488 | 36924 ft | 523 kts | 34° |
| 2026-05-05 14:42 | 58.59908 | 14.26267 | 36891 ft | 525 kts | 37° |
| 2026-05-05 14:43 | 58.65071 | 14.36263 | 36885 ft | 530 kts | 47° |
| 2026-05-05 14:43 | 58.69639 | 14.47447 | 36879 ft | 532 kts | 50° |
| 2026-05-05 14:44 | 58.74083 | 14.58835 | 36882 ft | 532 kts | 50° |
| 2026-05-05 14:44 | 58.78672 | 14.69997 | 36888 ft | 532 kts | 47° |
| 2026-05-05 14:45 | 58.83411 | 14.81014 | 36891 ft | 534 kts | 47° |
| 2026-05-05 14:45 | 58.85802 | 14.86525 | 36560 ft | 537 kts | 47° |
| 2026-05-05 14:45 | 58.88171 | 14.92018 | 35882 ft | 528 kts | 47° |
| 2026-05-05 14:46 | 58.90493 | 14.97459 | 35259 ft | 521 kts | 47° |
| 2026-05-05 14:46 | 58.92782 | 15.02871 | 34664 ft | 521 kts | 47° |
| 2026-05-05 14:46 | 58.95075 | 15.08331 | 34081 ft | 522 kts | 47° |
| 2026-05-05 14:46 | 58.97362 | 15.13800 | 33426 ft | 523 kts | 46° |
| 2026-05-05 14:47 | 58.99655 | 15.19297 | 32814 ft | 525 kts | 46° |
| 2026-05-05 14:47 | 59.01951 | 15.24813 | 32127 ft | 528 kts | 46° |
| 2026-05-05 14:47 | 59.04253 | 15.30345 | 31476 ft | 530 kts | 46° |
| 2026-05-05 14:47 | 59.06589 | 15.35968 | 30843 ft | 533 kts | 46° |
| 2026-05-05 14:48 | 59.08923 | 15.41598 | 30212 ft | 535 kts | 46° |
| 2026-05-05 14:48 | 59.11264 | 15.47255 | 29513 ft | 537 kts | 46° |
| 2026-05-05 14:48 | 59.13604 | 15.52920 | 28760 ft | 539 kts | 46° |
| 2026-05-05 14:48 | 59.15938 | 15.58587 | 28036 ft | 533 kts | 47° |
| 2026-05-05 14:49 | 59.18234 | 15.64191 | 27342 ft | 523 kts | 47° |
| 2026-05-05 14:49 | 59.20493 | 15.69719 | 26722 ft | 517 kts | 47° |
| 2026-05-05 14:49 | 59.22720 | 15.75181 | 26144 ft | 512 kts | 47° |
| 2026-05-05 14:49 | 59.24932 | 15.80615 | 25522 ft | 509 kts | 47° |
| 2026-05-05 14:50 | 59.27131 | 15.86025 | 24935 ft | 506 kts | 47° |
| 2026-05-05 14:50 | 59.29307 | 15.91390 | 24358 ft | 502 kts | 47° |
| 2026-05-05 14:50 | 59.31463 | 15.96719 | 23784 ft | 498 kts | 47° |
| 2026-05-05 14:50 | 59.33604 | 16.02022 | 23181 ft | 494 kts | 47° |
| 2026-05-05 14:51 | 59.35700 | 16.07225 | 22567 ft | 491 kts | 47° |
| 2026-05-05 14:51 | 59.37827 | 16.12518 | 21910 ft | 487 kts | 47° |
| 2026-05-05 14:51 | 59.39917 | 16.17729 | 21286 ft | 483 kts | 47° |
| 2026-05-05 14:51 | 59.41984 | 16.22897 | 20712 ft | 480 kts | 47° |
| 2026-05-05 14:52 | 59.44009 | 16.27967 | 20122 ft | 476 kts | 47° |
| 2026-05-05 14:52 | 59.46072 | 16.33145 | 19622 ft | 474 kts | 47° |
| 2026-05-05 14:52 | 59.48077 | 16.38187 | 19074 ft | 473 kts | 47° |
| 2026-05-05 14:52 | 59.50121 | 16.43339 | 18529 ft | 470 kts | 47° |
| 2026-05-05 14:53 | 59.52100 | 16.48336 | 17930 ft | 467 kts | 48° |
| 2026-05-05 14:53 | 59.54083 | 16.53352 | 17321 ft | 462 kts | 48° |
| 2026-05-05 14:53 | 59.56038 | 16.58313 | 16735 ft | 454 kts | 48° |
| 2026-05-05 14:53 | 59.57948 | 16.63172 | 16176 ft | 444 kts | 47° |
| 2026-05-05 14:54 | 59.59972 | 16.67662 | 15623 ft | 431 kts | 38° |
| 2026-05-05 14:54 | 59.62201 | 16.71457 | 15112 ft | 417 kts | 31° |
| 2026-05-05 14:54 | 59.64535 | 16.74759 | 14625 ft | 407 kts | 27° |
| 2026-05-05 14:54 | 59.66880 | 16.77765 | 14150 ft | 398 kts | 26° |
| 2026-05-05 14:55 | 59.69200 | 16.80650 | 13740 ft | 389 kts | 28° |
| 2026-05-05 14:55 | 59.71447 | 16.83493 | 13226 ft | 379 kts | 29° |
| 2026-05-05 14:55 | 59.73623 | 16.86364 | 12706 ft | 373 kts | 31° |
| 2026-05-05 14:55 | 59.75743 | 16.89271 | 12092 ft | 369 kts | 32° |
| 2026-05-05 14:56 | 59.77788 | 16.92284 | 11443 ft | 365 kts | 39° |
| 2026-05-05 14:56 | 59.79409 | 16.96084 | 10795 ft | 357 kts | 57° |
| 2026-05-05 14:56 | 59.80345 | 17.00540 | 10202 ft | 341 kts | 77° |
| 2026-05-05 14:56 | 59.80510 | 17.04995 | 9590 ft | 315 kts | 97° |
| 2026-05-05 14:57 | 59.79935 | 17.09041 | 8957 ft | 294 kts | 117° |
| 2026-05-05 14:57 | 59.78897 | 17.12430 | 8376 ft | 286 kts | 127° |
| 2026-05-05 14:57 | 59.77679 | 17.15578 | 7848 ft | 285 kts | 131° |
| 2026-05-05 14:57 | 59.76417 | 17.18561 | 7463 ft | 281 kts | 134° |
| 2026-05-05 14:58 | 59.75001 | 17.21203 | 7123 ft | 276 kts | 146° |
| 2026-05-05 14:58 | 59.73376 | 17.23161 | 6938 ft | 273 kts | 157° |
| 2026-05-05 14:58 | 59.71622 | 17.24563 | 6872 ft | 269 kts | 164° |
| 2026-05-05 14:58 | 59.69848 | 17.25649 | 6842 ft | 266 kts | 167° |
| 2026-05-05 14:59 | 59.68065 | 17.26652 | 6826 ft | 265 kts | 167° |
| 2026-05-05 14:59 | 59.66299 | 17.27682 | 6824 ft | 265 kts | 166° |
| 2026-05-05 14:59 | 59.64532 | 17.28782 | 6823 ft | 266 kts | 165° |
| 2026-05-05 14:59 | 59.62780 | 17.29927 | 6824 ft | 266 kts | 164° |
| 2026-05-05 15:00 | 59.61079 | 17.31351 | 6818 ft | 267 kts | 154° |
| 2026-05-05 15:00 | 59.60013 | 17.32569 | 6824 ft | 268 kts | 151° |
| 2026-05-05 15:00 | 59.57914 | 17.35300 | 6828 ft | 272 kts | 148° |
| 2026-05-05 15:00 | 59.56360 | 17.37429 | 6828 ft | 272 kts | 147° |
| 2026-05-05 15:01 | 59.54801 | 17.39586 | 6614 ft | 274 kts | 147° |
| 2026-05-05 15:01 | 59.53249 | 17.41738 | 6328 ft | 272 kts | 147° |
| 2026-05-05 15:01 | 59.51708 | 17.43871 | 6068 ft | 270 kts | 147° |
| 2026-05-05 15:01 | 59.50273 | 17.46245 | 5793 ft | 270 kts | 135° |
| 2026-05-05 15:02 | 59.49043 | 17.49039 | 5519 ft | 268 kts | 130° |
| 2026-05-05 15:02 | 59.47924 | 17.51901 | 5243 ft | 261 kts | 128° |
| 2026-05-05 15:02 | 59.46849 | 17.54760 | 5000 ft | 259 kts | 127° |
| 2026-05-05 15:02 | 59.45790 | 17.57612 | 4745 ft | 258 kts | 127° |
| 2026-05-05 15:03 | 59.44749 | 17.60429 | 4476 ft | 251 kts | 127° |
| 2026-05-05 15:03 | 59.43749 | 17.63135 | 4265 ft | 245 kts | 127° |
| 2026-05-05 15:03 | 59.42805 | 17.65923 | 4065 ft | 246 kts | 116° |
| 2026-05-05 15:03 | 59.42287 | 17.69099 | 3997 ft | 241 kts | 102° |
| 2026-05-05 15:04 | 59.41992 | 17.72223 | 3999 ft | 225 kts | 98° |
| 2026-05-05 15:04 | 59.41766 | 17.75178 | 4070 ft | 217 kts | 97° |
| 2026-05-05 15:04 | 59.41555 | 17.78105 | 4017 ft | 216 kts | 97° |
| 2026-05-05 15:04 | 59.41349 | 17.81025 | 4011 ft | 216 kts | 97° |
| 2026-05-05 15:05 | 59.42161 | 17.86318 | 4006 ft | 208 kts | 45° |
| 2026-05-05 15:05 | 59.43311 | 17.88001 | 3950 ft | 202 kts | 19° |
| 2026-05-05 15:05 | 59.44645 | 17.88749 | 3778 ft | 198 kts | 7° |
| 2026-05-05 15:06 | 59.45998 | 17.89215 | 3544 ft | 198 kts | 5° |
| 2026-05-05 15:06 | 59.47341 | 17.89666 | 3326 ft | 191 kts | 5° |
| 2026-05-05 15:06 | 59.48581 | 17.90104 | 3064 ft | 177 kts | 5° |
| 2026-05-05 15:06 | 59.49767 | 17.90526 | 2809 ft | 168 kts | 4° |
| 2026-05-05 15:07 | 59.50933 | 17.90933 | 2575 ft | 171 kts | 5° |
| 2026-05-05 15:07 | 59.52090 | 17.91341 | 2335 ft | 172 kts | 5° |
| 2026-05-05 15:07 | 59.53263 | 17.91758 | 2111 ft | 169 kts | 5° |
| 2026-05-05 15:07 | 59.54387 | 17.92157 | 1869 ft | 162 kts | 5° |
| 2026-05-05 15:08 | 59.55497 | 17.92549 | 1677 ft | 162 kts | 5° |
| 2026-05-05 15:08 | 59.56604 | 17.92942 | 1428 ft | 161 kts | 5° |
| 2026-05-05 15:08 | 59.57701 | 17.93335 | 1198 ft | 161 kts | 5° |
| 2026-05-05 15:08 | 59.58802 | 17.93723 | 963 ft | 161 kts | 7° |
| 2026-05-05 15:09 | 59.59901 | 17.94115 | 761 ft | 160 kts | 5° |
| 2026-05-05 15:09 | 59.61001 | 17.94502 | 589 ft | 160 kts | 5° |
| 2026-05-05 15:09 | 59.62090 | 17.94881 | 322 ft | 155 kts | 6° |
| 2026-05-05 15:09 | 59.63108 | 17.95260 | 137 ft | 140 kts | 7° |
| 2026-05-05 15:10 | 59.63892 | 17.95531 | 117 ft | 83 kts | 10° |
| 2026-05-05 15:10 | 59.64328 | 17.95681 | 113 ft | 56 kts | 7° |
| 2026-05-05 15:10 | 59.64598 | 17.95627 | 110 ft | 21 kts | 340° |
| 2026-05-05 15:10 | 59.64696 | 17.95558 | 109 ft | 10 kts | 341° |
| 2026-05-05 15:11 | 59.64749 | 17.95521 | 110 ft | 8 kts | 340° |
| 2026-05-05 15:11 | 59.64769 | 17.95507 | 109 ft | 2 kts | 340° |
| 2026-05-05 15:11 | 59.64779 | 17.95500 | 109 ft | 0 kts | 340° |
| 2026-05-05 15:14 | 59.64789 | 17.95493 | 109 ft | 4 kts | 340° |
| 2026-05-05 15:14 | 59.64829 | 17.95476 | 110 ft | 7 kts | 355° |
| 2026-05-05 15:15 | 59.64885 | 17.95485 | 111 ft | 9 kts | 9° |
| 2026-05-05 15:15 | 59.64953 | 17.95506 | 112 ft | 10 kts | 9° |
| 2026-05-05 15:15 | 59.65025 | 17.95515 | 115 ft | 11 kts | 353° |
| 2026-05-05 15:15 | 59.65104 | 17.95484 | 120 ft | 13 kts | 348° |
| 2026-05-05 15:16 | 59.65190 | 17.95438 | 124 ft | 14 kts | 344° |
| 2026-05-05 15:16 | 59.65286 | 17.95387 | 127 ft | 15 kts | 345° |
| 2026-05-05 15:16 | 59.65390 | 17.95334 | 133 ft | 16 kts | 344° |
| 2026-05-05 15:16 | 59.65464 | 17.95292 | 134 ft | 18 kts | 344° |
| 2026-05-05 15:17 | 59.65638 | 17.95201 | 134 ft | 21 kts | 345° |
| 2026-05-05 15:17 | 59.65749 | 17.95066 | 128 ft | 19 kts | 278° |
| 2026-05-05 15:17 | 59.65723 | 17.94821 | 126 ft | 18 kts | 254° |
| 2026-05-05 15:17 | 59.65691 | 17.94566 | 126 ft | 20 kts | 257° |
| 2026-05-05 15:18 | 59.65657 | 17.94289 | 126 ft | 22 kts | 256° |
| 2026-05-05 15:18 | 59.65617 | 17.93968 | 119 ft | 27 kts | 256° |
| 2026-05-05 15:18 | 59.65572 | 17.93616 | 114 ft | 22 kts | 256° |
| 2026-05-05 15:18 | 59.65533 | 17.93302 | 114 ft | 25 kts | 256° |
| 2026-05-05 15:19 | 59.65490 | 17.92974 | 115 ft | 22 kts | 244° |
| 2026-05-05 15:19 | 59.65435 | 17.92719 | 112 ft | 18 kts | 232° |
| 2026-05-05 15:19 | 59.65358 | 17.92710 | 116 ft | 12 kts | 156° |
| 2026-05-05 15:19 | 59.65280 | 17.92788 | 115 ft | 9 kts | 149° |
| 2026-05-05 15:20 | 59.65274 | 17.92883 | 113 ft | 9 kts | 68° |
| 2026-05-05 15:20 | 59.65286 | 17.92945 | 114 ft | 2 kts | 69° |
| 2026-05-05 15:20 | 59.65289 | 17.92960 | 113 ft | 1 kts | 69° |
| 2026-05-05 15:20 | 59.65289 | 17.92961 | 113 ft | 0 kts | 69° |